Airport View

Enter AWOS ICAO identifier for current METAR.

ex. KFNL

KJZI 262150Z AUTO 27007KT 4SM -RA CLR 18/18 A2982 RMK AO2

26 Feb 2020 21:51

Frequency: 123.775

Phone: 843-559-3123

Other Area AWOS: KCHS - KLRO - KDYB - KMKS

TAF AMD KCHS 261923Z 2619/2718 23008KT 6SM RA SCT008 BKN015 FM270100 26012KT 5SM -RA SCT020 BKN040 FM270400 30013G20KT P6SM SKC